Lehmann Sound — V2EM3 — position and weather

sailwx.info

Track history (hours):
 
Tides and Currents Weather Stations Pressure Air Temp Water Temp Dewpoint Dewpoint Depression Visibility Wind Speed Wind Dir Waves Ship Positions

Lehmann Sound

Last reported at 2017-Dec-11 04:37 UTC. Time now 2017-Dec-11 22:45 UTC.
Position N 56°14' E 012°08'.

Length 90 m; draft 5.9 m.

Type: Cargo ship. MMSI: 305476000.

Date/timePositionNaut miles runAvg speedWind from/ knotsBaromVisibWave heightAir tempDewpointWater temp
2017-Dec-11 04:37N 56°14' E 012°08'110.2
2017-Dec-11 04:30N 56°14' E 012°11'5 9.9
2017-Dec-11 04:00N 56°12' E 012°19'510.4
2017-Dec-11 03:30N 56°10' E 012°27'611.7
2017-Dec-11 03:01N 56°06' E 012°35'510.7
2017-Dec-11 02:31N 56°01' E 012°40'510.8
2017-Dec-11 02:00N 55°56' E 012°43'510.5
2017-Dec-11 01:30N 55°51' E 012°44'510.3
2017-Dec-11 01:00N 55°46' E 012°42'510.9
2017-Dec-11 00:30N 55°41' E 012°41'611.4
2017-Dec-11 00:00N 55°35' E 012°42'510.7
2017-Dec-10 23:30N 55°30' E 012°43'510.7
2017-Dec-10 23:00N 55°24' E 012°42'510.1
2017-Dec-10 22:30N 55°19' E 012°41'5 8.7
2017-Dec-10 21:56N 55°17' E 012°49'4 9.0
2017-Dec-10 21:30N 55°16' E 012°56'5 9.5
2017-Dec-10 21:00N 55°15' E 013°04'5 9.2
2017-Dec-10 20:30N 55°15' E 013°12'5 9.4
2017-Dec-10 19:59N 55°15' E 013°20'9 9.3
2017-Dec-10 19:00N 55°14' E 013°36'14 9.4
2017-Dec-10 17:30N 55°14' E 014°01'6 8.9
2017-Dec-10 16:47N 55°13' E 014°12'3 7.8
2017-Dec-10 16:23N 55°14' E 014°18'3 8.4
2017-Dec-10 15:58N 55°17' E 014°22'4 8.3
2017-Dec-10 15:30N 55°20' E 014°26'5 8.3
2017-Dec-10 14:55N 55°23' E 014°32'3 7.9
2017-Dec-10 14:30N 55°26' E 014°36'4 7.3
2017-Dec-10 13:55N 55°28' E 014°42'3 7.1
2017-Dec-10 13:30N 55°30' E 014°46'4 6.2
2017-Dec-10 12:51N 55°32' E 014°52'6 6.5
2017-Dec-10 11:58N 55°35' E 015°01'3 6.1
2017-Dec-10 11:27N 55°37' E 015°06'3 6.1
2017-Dec-10 11:00N 55°38' E 015°10'3 5.8
2017-Dec-10 10:29N 55°40' E 015°15'3 6.0
2017-Dec-10 10:00N 55°41' E 015°19'3 5.9
2017-Dec-10 09:31N 55°43' E 015°23'4 6.9
2017-Dec-10 08:59N 55°45' E 015°29'3 7.0
2017-Dec-10 08:30N 55°46' E 015°34'4 7.6
2017-Dec-10 08:01N 55°48' E 015°40'4 8.1
2017-Dec-10 07:30N 55°50' E 015°46'4 8.1
2017-Dec-10 07:00N 55°52' E 015°52'4 8.2
2017-Dec-10 06:30N 55°54' E 015°58'4 8.2
2017-Dec-10 06:00N 55°56' E 016°05'4 8.2
2017-Dec-10 05:30N 55°58' E 016°11'4 8.2
2017-Dec-10 05:00N 56°00' E 016°17'4 8.3
2017-Dec-10 04:30N 56°02' E 016°24'4 8.1
2017-Dec-10 04:00N 56°05' E 016°30'4 8.3
2017-Dec-10 03:31N 56°07' E 016°36'159 7.2
2017-Dec-09 05:17N 58°41' E 017°53'1 5.1
2017-Dec-09 05:00N 58°42' E 017°52'3 5.6
2017-Dec-09 04:30N 58°45' E 017°51'3 6.3
2017-Dec-09 03:58N 58°47' E 017°46'4 8.1
2017-Dec-09 03:26N 58°51' E 017°43'4 8.7
2017-Dec-09 03:00N 58°55' E 017°43'5 9.2
2017-Dec-09 02:30N 58°60' E 017°43'14 6.0
2017-Dec-09 00:14N 59°13' E 017°37'2 6.8
2017-Dec-09 00:00N 59°14' E 017°36'5 9.4
2017-Dec-08 23:30N 59°19' E 017°33'5 9.4
2017-Dec-08 23:00N 59°22' E 017°27'5 9.2
2017-Dec-08 22:30N 59°26' E 017°22'4 8.9
2017-Dec-08 22:00N 59°28' E 017°14'4 8.5
2017-Dec-08 21:30N 59°31' E 017°08'4 8.9
2017-Dec-08 21:00N 59°32' E 016°59'4 7.4
2017-Dec-08 20:27N 59°29' E 016°54'4 9.5
2017-Dec-08 20:00N 59°30' E 016°46'  
2017-Dec-03 22:08N 59°33' E 024°02'1 8.7
2017-Dec-03 22:00N 59°34' E 024°04'4 8.8
2017-Dec-03 21:31N 59°35' E 024°12'4 8.6
2017-Dec-03 21:01N 59°37' E 024°20'4 8.0
2017-Dec-03 20:30N 59°39' E 024°27'4 8.2
2017-Dec-03 20:00N 59°38' E 024°35'4 8.5
2017-Dec-03 19:30N 59°38' E 024°44'4 7.8
2017-Dec-03 19:01N 59°40' E 024°51'4 7.7
2017-Dec-03 18:30N 59°40' E 024°58'4 7.9
2017-Dec-03 18:01N 59°41' E 025°06'4 7.8
2017-Dec-03 17:30N 59°42' E 025°14'30 7.1
2017-Dec-03 13:20N 59°45' E 026°12'2 7.2
2017-Dec-03 13:00N 59°45' E 026°17'4 7.4
2017-Dec-03 12:30N 59°45' E 026°24'4 7.5
2017-Dec-03 12:00N 59°44' E 026°32'6 7.9
2017-Dec-03 11:14N 59°43' E 026°43'2 8.5
2017-Dec-03 11:00N 59°42' E 026°47'4 8.3
2017-Dec-03 10:29N 59°40' E 026°54'5 8.6
2017-Dec-03 09:53N 59°38' E 027°03'22 9.1
2017-Dec-03 07:30N 59°29' E 027°42'4 2.8
2017-Dec-03 06:08N 59°25' E 027°44'0 0.0
2017-Dec-03 05:41N 59°25' E 027°44'0 0.0
2017-Dec-03 05:11N 59°25' E 027°44'0 0.0
2017-Dec-03 04:41N 59°25' E 027°44'0 0.0
2017-Dec-03 04:26N 59°25' E 027°44'0 0.0
2017-Dec-03 03:53N 59°25' E 027°44'0 0.0
2017-Dec-03 03:29N 59°25' E 027°44'0 0.0
2017-Dec-03 02:56N 59°25' E 027°44'0 0.0
2017-Dec-03 02:29N 59°25' E 027°44'0 0.0
2017-Dec-03 01:59N 59°25' E 027°44'0 0.0
2017-Dec-03 01:26N 59°25' E 027°44'0 0.0
2017-Dec-03 00:59N 59°25' E 027°44'0 0.0
2017-Dec-03 00:26N 59°25' E 027°44'0 0.0
2017-Dec-02 23:56N 59°25' E 027°44'0 0.0
2017-Dec-02 23:29N 59°25' E 027°44'0 0.0
2017-Dec-02 22:59N 59°25' E 027°44'0 0.0
2017-Dec-02 22:23N 59°25' E 027°44'0 0.0
2017-Dec-02 21:56N 59°25' E 027°44'0 0.0
2017-Dec-02 21:08N 59°25' E 027°44'0 0.0
2017-Dec-02 20:59N 59°25' E 027°44'0 0.0
2017-Dec-02 20:29N 59°25' E 027°44'0 0.0
2017-Dec-02 19:56N 59°25' E 027°44'0 0.0
2017-Dec-02 19:29N 59°25' E 027°44'0 0.0
2017-Dec-02 18:59N 59°25' E 027°44'0 0.0
2017-Dec-02 18:29N 59°25' E 027°44'0 0.0
2017-Dec-02 17:50N 59°25' E 027°44'0 0.0
2017-Dec-02 17:26N 59°25' E 027°44'0 0.0
2017-Dec-02 16:53N 59°25' E 027°44'0 0.1
2017-Dec-02 16:30N 59°25' E 027°44'0 0.2
2017-Dec-02 15:58N 59°25' E 027°44'1 1.1
2017-Dec-02 15:30N 59°26' E 027°44'3 5.9
2017-Dec-02 15:00N 59°29' E 027°44'0 0.3
2017-Dec-02 14:30N 59°29' E 027°44'0 0.1
2017-Dec-02 14:00N 59°29' E 027°44'0 0.0
2017-Dec-02 12:03N 59°29' E 027°44'0 0.1
2017-Dec-02 11:48N 59°29' E 027°44'0 0.1
2017-Dec-02 11:30N 59°29' E 027°44'0 0.7
2017-Dec-02 11:00N 59°29' E 027°43'3 6.6
2017-Dec-02 10:31N 59°30' E 027°37'5 9.1
2017-Dec-02 10:00N 59°30' E 027°28'4 8.6
2017-Dec-02 09:31N 59°31' E 027°20'7 8.9
2017-Dec-02 08:47N 59°33' E 027°08'4 8.9
2017-Dec-02 08:19N 59°34' E 026°59'3 8.9
2017-Dec-02 07:58N 59°34' E 026°53'4 9.0
2017-Dec-02 07:30N 59°35' E 026°45'4 8.9
2017-Dec-02 07:00N 59°36' E 026°37'4 0.2
2017-Dec-01 10:48N 59°32' E 026°33'2 5.8
2017-Dec-01 10:30N 59°34' E 026°31'4 8.4
2017-Dec-01 10:00N 59°38' E 026°29'4 8.6
2017-Dec-01 09:30N 59°42' E 026°25'4 8.1
2017-Dec-01 09:00N 59°45' E 026°21'4 7.6
2017-Dec-01 08:30N 59°49' E 026°18'4 8.1
2017-Dec-01 08:00N 59°53' E 026°19'4 8.7
2017-Dec-01 07:30N 59°56' E 026°25'4 8.3
2017-Dec-01 07:01N 59°59' E 026°30'4 7.4
2017-Dec-01 06:30N 60°01' E 026°36'510.1
2017-Dec-01 06:00N 60°01' E 026°46'510.4
2017-Dec-01 05:30N 59°60' E 026°56'5 9.6
2017-Dec-01 05:00N 59°60' E 027°06'  
Track history (hours):
 
Tides and Currents Weather Stations Pressure Air Temp Water Temp Dewpoint Dewpoint Depression Visibility Wind Speed Wind Dir Waves Ship Positions

Lehmann Sound

Last reported at 2017-Dec-11 04:37 UTC. Time now 2017-Dec-11 22:45 UTC.
Position N 56°14' E 012°08'.

Length 90 m; draft 5.9 m.

Type: Cargo ship. MMSI: 305476000.

Date/timePositionNaut miles runAvg speedWind from/ knotsBaromVisibWave heightAir tempDewpointWater temp
2017-Dec-11 04:37N 56°14' E 012°08'110.2
2017-Dec-11 04:30N 56°14' E 012°11'5 9.9
2017-Dec-11 04:00N 56°12' E 012°19'510.4
2017-Dec-11 03:30N 56°10' E 012°27'611.7
2017-Dec-11 03:01N 56°06' E 012°35'510.7
2017-Dec-11 02:31N 56°01' E 012°40'510.8
2017-Dec-11 02:00N 55°56' E 012°43'510.5
2017-Dec-11 01:30N 55°51' E 012°44'510.3
2017-Dec-11 01:00N 55°46' E 012°42'510.9
2017-Dec-11 00:30N 55°41' E 012°41'611.4
2017-Dec-11 00:00N 55°35' E 012°42'510.7
2017-Dec-10 23:30N 55°30' E 012°43'510.7
2017-Dec-10 23:00N 55°24' E 012°42'510.1
2017-Dec-10 22:30N 55°19' E 012°41'5 8.7
2017-Dec-10 21:56N 55°17' E 012°49'4 9.0
2017-Dec-10 21:30N 55°16' E 012°56'5 9.5
2017-Dec-10 21:00N 55°15' E 013°04'5 9.2
2017-Dec-10 20:30N 55°15' E 013°12'5 9.4
2017-Dec-10 19:59N 55°15' E 013°20'9 9.3
2017-Dec-10 19:00N 55°14' E 013°36'14 9.4
2017-Dec-10 17:30N 55°14' E 014°01'6 8.9
2017-Dec-10 16:47N 55°13' E 014°12'3 7.8
2017-Dec-10 16:23N 55°14' E 014°18'3 8.4
2017-Dec-10 15:58N 55°17' E 014°22'4 8.3
2017-Dec-10 15:30N 55°20' E 014°26'5 8.3
2017-Dec-10 14:55N 55°23' E 014°32'3 7.9
2017-Dec-10 14:30N 55°26' E 014°36'4 7.3
2017-Dec-10 13:55N 55°28' E 014°42'3 7.1
2017-Dec-10 13:30N 55°30' E 014°46'4 6.2
2017-Dec-10 12:51N 55°32' E 014°52'6 6.5
2017-Dec-10 11:58N 55°35' E 015°01'3 6.1
2017-Dec-10 11:27N 55°37' E 015°06'3 6.1
2017-Dec-10 11:00N 55°38' E 015°10'3 5.8
2017-Dec-10 10:29N 55°40' E 015°15'3 6.0
2017-Dec-10 10:00N 55°41' E 015°19'3 5.9
2017-Dec-10 09:31N 55°43' E 015°23'4 6.9
2017-Dec-10 08:59N 55°45' E 015°29'3 7.0
2017-Dec-10 08:30N 55°46' E 015°34'4 7.6
2017-Dec-10 08:01N 55°48' E 015°40'4 8.1
2017-Dec-10 07:30N 55°50' E 015°46'4 8.1
2017-Dec-10 07:00N 55°52' E 015°52'4 8.2
2017-Dec-10 06:30N 55°54' E 015°58'4 8.2
2017-Dec-10 06:00N 55°56' E 016°05'4 8.2
2017-Dec-10 05:30N 55°58' E 016°11'4 8.2
2017-Dec-10 05:00N 56°00' E 016°17'4 8.3
2017-Dec-10 04:30N 56°02' E 016°24'4 8.1
2017-Dec-10 04:00N 56°05' E 016°30'4 8.3
2017-Dec-10 03:31N 56°07' E 016°36'159 7.2
2017-Dec-09 05:17N 58°41' E 017°53'1 5.1
2017-Dec-09 05:00N 58°42' E 017°52'3 5.6
2017-Dec-09 04:30N 58°45' E 017°51'3 6.3
2017-Dec-09 03:58N 58°47' E 017°46'4 8.1
2017-Dec-09 03:26N 58°51' E 017°43'4 8.7
2017-Dec-09 03:00N 58°55' E 017°43'5 9.2
2017-Dec-09 02:30N 58°60' E 017°43'14 6.0
2017-Dec-09 00:14N 59°13' E 017°37'2 6.8
2017-Dec-09 00:00N 59°14' E 017°36'5 9.4
2017-Dec-08 23:30N 59°19' E 017°33'5 9.4
2017-Dec-08 23:00N 59°22' E 017°27'5 9.2
2017-Dec-08 22:30N 59°26' E 017°22'4 8.9
2017-Dec-08 22:00N 59°28' E 017°14'4 8.5
2017-Dec-08 21:30N 59°31' E 017°08'4 8.9
2017-Dec-08 21:00N 59°32' E 016°59'4 7.4
2017-Dec-08 20:27N 59°29' E 016°54'4 9.5
2017-Dec-08 20:00N 59°30' E 016°46'  
2017-Dec-03 22:08N 59°33' E 024°02'1 8.7
2017-Dec-03 22:00N 59°34' E 024°04'4 8.8
2017-Dec-03 21:31N 59°35' E 024°12'4 8.6
2017-Dec-03 21:01N 59°37' E 024°20'4 8.0
2017-Dec-03 20:30N 59°39' E 024°27'4 8.2
2017-Dec-03 20:00N 59°38' E 024°35'4 8.5
2017-Dec-03 19:30N 59°38' E 024°44'4 7.8
2017-Dec-03 19:01N 59°40' E 024°51'4 7.7
2017-Dec-03 18:30N 59°40' E 024°58'4 7.9
2017-Dec-03 18:01N 59°41' E 025°06'4 7.8
2017-Dec-03 17:30N 59°42' E 025°14'30 7.1
2017-Dec-03 13:20N 59°45' E 026°12'2 7.2
2017-Dec-03 13:00N 59°45' E 026°17'4 7.4
2017-Dec-03 12:30N 59°45' E 026°24'4 7.5
2017-Dec-03 12:00N 59°44' E 026°32'6 7.9
2017-Dec-03 11:14N 59°43' E 026°43'2 8.5
2017-Dec-03 11:00N 59°42' E 026°47'4 8.3
2017-Dec-03 10:29N 59°40' E 026°54'5 8.6
2017-Dec-03 09:53N 59°38' E 027°03'22 9.1
2017-Dec-03 07:30N 59°29' E 027°42'4 2.8
2017-Dec-03 06:08N 59°25' E 027°44'0 0.0
2017-Dec-03 05:41N 59°25' E 027°44'0 0.0
2017-Dec-03 05:11N 59°25' E 027°44'0 0.0
2017-Dec-03 04:41N 59°25' E 027°44'0 0.0
2017-Dec-03 04:26N 59°25' E 027°44'0 0.0
2017-Dec-03 03:53N 59°25' E 027°44'0 0.0
2017-Dec-03 03:29N 59°25' E 027°44'0 0.0
2017-Dec-03 02:56N 59°25' E 027°44'0 0.0
2017-Dec-03 02:29N 59°25' E 027°44'0 0.0
2017-Dec-03 01:59N 59°25' E 027°44'0 0.0
2017-Dec-03 01:26N 59°25' E 027°44'0 0.0
2017-Dec-03 00:59N 59°25' E 027°44'0 0.0
2017-Dec-03 00:26N 59°25' E 027°44'0 0.0
2017-Dec-02 23:56N 59°25' E 027°44'0 0.0
2017-Dec-02 23:29N 59°25' E 027°44'0 0.0
2017-Dec-02 22:59N 59°25' E 027°44'0 0.0
2017-Dec-02 22:23N 59°25' E 027°44'0 0.0
2017-Dec-02 21:56N 59°25' E 027°44'0 0.0
2017-Dec-02 21:08N 59°25' E 027°44'0 0.0
2017-Dec-02 20:59N 59°25' E 027°44'0 0.0
2017-Dec-02 20:29N 59°25' E 027°44'0 0.0
2017-Dec-02 19:56N 59°25' E 027°44'0 0.0
2017-Dec-02 19:29N 59°25' E 027°44'0 0.0
2017-Dec-02 18:59N 59°25' E 027°44'0 0.0
2017-Dec-02 18:29N 59°25' E 027°44'0 0.0
2017-Dec-02 17:50N 59°25' E 027°44'0 0.0
2017-Dec-02 17:26N 59°25' E 027°44'0 0.0
2017-Dec-02 16:53N 59°25' E 027°44'0 0.1
2017-Dec-02 16:30N 59°25' E 027°44'0 0.2
2017-Dec-02 15:58N 59°25' E 027°44'1 1.1
2017-Dec-02 15:30N 59°26' E 027°44'3 5.9
2017-Dec-02 15:00N 59°29' E 027°44'0 0.3
2017-Dec-02 14:30N 59°29' E 027°44'0 0.1
2017-Dec-02 14:00N 59°29' E 027°44'0 0.0
2017-Dec-02 12:03N 59°29' E 027°44'0 0.1
2017-Dec-02 11:48N 59°29' E 027°44'0 0.1
2017-Dec-02 11:30N 59°29' E 027°44'0 0.7
2017-Dec-02 11:00N 59°29' E 027°43'3 6.6
2017-Dec-02 10:31N 59°30' E 027°37'5 9.1
2017-Dec-02 10:00N 59°30' E 027°28'4 8.6
2017-Dec-02 09:31N 59°31' E 027°20'7 8.9
2017-Dec-02 08:47N 59°33' E 027°08'4 8.9
2017-Dec-02 08:19N 59°34' E 026°59'3 8.9
2017-Dec-02 07:58N 59°34' E 026°53'4 9.0
2017-Dec-02 07:30N 59°35' E 026°45'4 8.9
2017-Dec-02 07:00N 59°36' E 026°37'4 0.2
2017-Dec-01 10:48N 59°32' E 026°33'2 5.8
2017-Dec-01 10:30N 59°34' E 026°31'4 8.4
2017-Dec-01 10:00N 59°38' E 026°29'4 8.6
2017-Dec-01 09:30N 59°42' E 026°25'4 8.1
2017-Dec-01 09:00N 59°45' E 026°21'4 7.6
2017-Dec-01 08:30N 59°49' E 026°18'4 8.1
2017-Dec-01 08:00N 59°53' E 026°19'4 8.7
2017-Dec-01 07:30N 59°56' E 026°25'4 8.3
2017-Dec-01 07:01N 59°59' E 026°30'4 7.4
2017-Dec-01 06:30N 60°01' E 026°36'510.1
2017-Dec-01 06:00N 60°01' E 026°46'510.4
2017-Dec-01 05:30N 59°60' E 026°56'5 9.6
2017-Dec-01 05:00N 59°60' E 027°06'  

Dump ship's entire track history